Terminal Aerodrome Forecast
Issued by NWS

Home | Current Version | Previous Version | Text Only | Print | Product List | Glossary On
Versions: 1 2 3 4 5 6 7 8 9 10 11 12 13 14 15 16 17 18 19 20 21 22 23 24 25 26 27 28 29 30 31 32 33 34 35 36 37
000
FTUS41 KOKX 262126 AAD
TAFGON
TAF AMD
KGON 262126Z 2621/2718 21012KT 1SM -SHRA BR OVC003 WS010/22055KT
      TEMPO 2621/2624 1/4SM TSRA FG SCT003 OVC010CB
     FM270100 23006KT 1SM SHRA BR OVC004
     FM270400 33005KT 2SM -RA BR OVC006
     FM271000 36005KT 2SM -RA BR OVC006
     FM271500 01006KT 4SM -RA BR OVC015=

USA.gov is the U.S. government's official web portal to all federal, state and local government web resources and services.